This is the latest recevied weather packets stored in our database for station/object VA3ZFM-10. If no packets are shown the sender has not sent any weather packets the latest 10 day(s).
| Time | Temp. | Humidity | Pressure | Rain* | Wind** | Luminosity | Snow |
|---|---|---|---|---|---|---|---|
| 1778253541 | 8.89° C | 42% | 1009.1 hPa | 0 mm | - | - | - |
| 1778253238 | 8.33° C | 44% | 1009.1 hPa | 0 mm | - | - | - |
| 1778252934 | 7.78° C | 45% | 1009 hPa | 0 mm | - | - | - |
| 1778252631 | 7.78° C | 47% | 1009.1 hPa | 0 mm | - | - | - |
| 1778252327 | 7.78° C | 48% | 1009.1 hPa | 0 mm | - | - | - |
| 1778252023 | 8.33° C | 46% | 1009 hPa | 0 mm | - | - | - |
| 1778251721 | 7.78° C | 48% | 1009.2 hPa | 0 mm | - | - | - |
| 1778251419 | 7.78° C | 49% | 1009.1 hPa | 0 mm | - | - | - |
| 1778251116 | 7.78° C | 49% | 1009.2 hPa | 0 mm | - | - | - |
| 1778250813 | 7.22° C | 50% | 1009.3 hPa | 0 mm | - | - | - |
| 1778250510 | 7.22° C | 49% | 1009 hPa | 0 mm | - | - | - |
| 1778250206 | 7.22° C | 50% | 1009.1 hPa | 0 mm | - | - | - |
| 1778249903 | 6.67° C | 53% | 1009.6 hPa | 0 mm | - | - | - |
| 1778249600 | 6.11° C | 54% | 1009.3 hPa | 0 mm | - | - | - |
| 1778249297 | 6.67° C | 54% | 1009.4 hPa | 0 mm | - | - | - |
| 1778248994 | 6.67° C | 53% | 1009.6 hPa | 0 mm | - | - | - |
| 1778248690 | 6.11° C | 55% | 1009.5 hPa | 0 mm | - | - | - |
| 1778248386 | 6.11° C | 55% | 1009.6 hPa | 0 mm | - | - | - |
| 1778248082 | 6.11° C | 55% | 1009.6 hPa | 0 mm | - | - | - |
| 1778247780 | 5.56° C | 58% | 1009.6 hPa | 0 mm | - | - | - |
| 1778247476 | 5.56° C | 60% | 1010.2 hPa | 0 mm | - | - | - |
| 1778247174 | 5° C | 62% | 1009.5 hPa | 0 mm | - | - | - |
| 1778246871 | 4.44° C | 63% | 1010.1 hPa | 0 mm | - | - | - |
| 1778246569 | 5° C | 62% | 1009.9 hPa | 0 mm | - | - | - |
| 1778246264 | 5° C | 62% | 1010 hPa | 0 mm | - | - | - |
* Rain latest hour (hover to see other rain measurements)
** Current wind speed in m/s (hover to see current wind gust speed)